sensor_id;sensor_type;location;lat;lon;timestamp;pressure;altitude;pressure_sealevel;temperature;humidity
63204;BME280;49297;43.210;27.914;2023-07-31T00:02:12;100519.31;;;23.77;66.65
63204;BME280;49297;43.210;27.914;2023-07-31T00:04:40;100526.84;;;23.75;66.93
63204;BME280;49297;43.210;27.914;2023-07-31T00:07:08;100520.84;;;23.73;66.94
63204;BME280;49297;43.210;27.914;2023-07-31T00:09:37;100510.25;;;23.72;66.98
63204;BME280;49297;43.210;27.914;2023-07-31T00:12:06;100515.88;;;23.70;67.05
63204;BME280;49297;43.210;27.914;2023-07-31T00:14:36;100514.69;;;23.66;67.18
63204;BME280;49297;43.210;27.914;2023-07-31T00:17:05;100514.94;;;23.65;67.11
63204;BME280;49297;43.210;27.914;2023-07-31T00:19:34;100526.81;;;23.64;67.15
63204;BME280;49297;43.210;27.914;2023-07-31T00:22:02;100524.09;;;23.64;67.19
63204;BME280;49297;43.210;27.914;2023-07-31T00:24:32;100522.44;;;23.63;67.20
63204;BME280;49297;43.210;27.914;2023-07-31T00:27:01;100523.47;;;23.62;67.42
63204;BME280;49297;43.210;27.914;2023-07-31T00:29:29;100526.44;;;23.60;67.53
63204;BME280;49297;43.210;27.914;2023-07-31T00:31:58;100530.19;;;23.59;67.54
63204;BME280;49297;43.210;27.914;2023-07-31T00:34:27;100528.53;;;23.58;67.74
63204;BME280;49297;43.210;27.914;2023-07-31T00:36:55;100522.31;;;23.57;67.80
63204;BME280;49297;43.210;27.914;2023-07-31T00:39:24;100525.00;;;23.57;67.82
63204;BME280;49297;43.210;27.914;2023-07-31T00:41:52;100523.38;;;23.56;67.80
63204;BME280;49297;43.210;27.914;2023-07-31T00:44:21;100530.19;;;23.59;67.89
63204;BME280;49297;43.210;27.914;2023-07-31T00:46:49;100531.00;;;23.60;67.98
63204;BME280;49297;43.210;27.914;2023-07-31T00:49:18;100519.38;;;23.59;68.09
63204;BME280;49297;43.210;27.914;2023-07-31T00:51:46;100525.59;;;23.60;68.25
63204;BME280;49297;43.210;27.914;2023-07-31T00:54:16;100535.22;;;23.55;68.34
63204;BME280;49297;43.210;27.914;2023-07-31T00:56:46;100535.06;;;23.50;68.69
63204;BME280;49297;43.210;27.914;2023-07-31T00:59:15;100525.19;;;23.44;68.74
63204;BME280;49297;43.210;27.914;2023-07-31T01:01:46;100530.22;;;23.41;68.92
63204;BME280;49297;43.210;27.914;2023-07-31T01:04:15;100532.41;;;23.32;69.14
63204;BME280;49297;43.210;27.914;2023-07-31T01:07:11;100524.75;;;23.29;69.77
63204;BME280;49297;43.210;27.914;2023-07-31T01:09:56;100526.03;;;23.26;69.99
63204;BME280;49297;43.210;27.914;2023-07-31T01:12:28;100519.41;;;23.22;70.37
63204;BME280;49297;43.210;27.914;2023-07-31T01:15:04;100524.44;;;23.18;70.39
63204;BME280;49297;43.210;27.914;2023-07-31T01:17:38;100525.13;;;23.14;70.55
63204;BME280;49297;43.210;27.914;2023-07-31T01:22:58;100528.72;;;23.08;71.09
63204;BME280;49297;43.210;27.914;2023-07-31T01:28:59;100527.63;;;22.90;71.13
63204;BME280;49297;43.210;27.914;2023-07-31T01:31:32;100540.59;;;22.81;71.17
63204;BME280;49297;43.210;27.914;2023-07-31T01:34:02;100544.41;;;22.74;71.40
63204;BME280;49297;43.210;27.914;2023-07-31T01:36:31;100540.72;;;22.68;71.78
63204;BME280;49297;43.210;27.914;2023-07-31T01:39:00;100550.47;;;22.69;71.65
63204;BME280;49297;43.210;27.914;2023-07-31T01:41:29;100553.19;;;22.69;71.38
63204;BME280;49297;43.210;27.914;2023-07-31T01:43:57;100562.53;;;22.67;71.38
63204;BME280;49297;43.210;27.914;2023-07-31T01:46:26;100550.91;;;22.66;71.45
63204;BME280;49297;43.210;27.914;2023-07-31T01:48:55;100551.50;;;22.68;71.55
63204;BME280;49297;43.210;27.914;2023-07-31T01:51:23;100543.41;;;22.68;71.38
63204;BME280;49297;43.210;27.914;2023-07-31T01:53:52;100550.22;;;22.71;71.17
63204;BME280;49297;43.210;27.914;2023-07-31T01:56:20;100547.78;;;22.69;71.23
63204;BME280;49297;43.210;27.914;2023-07-31T01:58:49;100552.34;;;22.69;71.15
63204;BME280;49297;43.210;27.914;2023-07-31T02:01:17;100542.44;;;22.62;71.20
63204;BME280;49297;43.210;27.914;2023-07-31T02:03:46;100549.72;;;22.62;71.32
63204;BME280;49297;43.210;27.914;2023-07-31T02:06:14;100550.16;;;22.59;71.42
63204;BME280;49297;43.210;27.914;2023-07-31T02:08:42;100554.78;;;22.52;71.98
63204;BME280;49297;43.210;27.914;2023-07-31T02:11:11;100555.63;;;22.46;71.93
63204;BME280;49297;43.210;27.914;2023-07-31T02:13:39;100565.22;;;22.41;72.04
63204;BME280;49297;43.210;27.914;2023-07-31T02:16:08;100555.94;;;22.37;71.80
63204;BME280;49297;43.210;27.914;2023-07-31T02:18:36;100557.00;;;22.30;71.78
63204;BME280;49297;43.210;27.914;2023-07-31T02:21:05;100557.47;;;22.27;71.93
63204;BME280;49297;43.210;27.914;2023-07-31T02:23:33;100556.59;;;22.26;72.06
63204;BME280;49297;43.210;27.914;2023-07-31T02:26:02;100556.19;;;22.22;72.16
63204;BME280;49297;43.210;27.914;2023-07-31T02:28:30;100558.69;;;22.24;72.18
63204;BME280;49297;43.210;27.914;2023-07-31T02:30:59;100550.59;;;22.24;72.24
63204;BME280;49297;43.210;27.914;2023-07-31T02:33:27;100555.78;;;22.25;72.26
63204;BME280;49297;43.210;27.914;2023-07-31T02:35:56;100543.78;;;22.28;72.08
63204;BME280;49297;43.210;27.914;2023-07-31T02:38:24;100545.41;;;22.29;72.20
63204;BME280;49297;43.210;27.914;2023-07-31T02:40:53;100550.78;;;22.29;71.76
63204;BME280;49297;43.210;27.914;2023-07-31T02:43:21;100554.31;;;22.30;71.89
63204;BME280;49297;43.210;27.914;2023-07-31T02:45:53;100558.47;;;22.32;71.70
63204;BME280;49297;43.210;27.914;2023-07-31T02:48:22;100550.16;;;22.34;71.62
63204;BME280;49297;43.210;27.914;2023-07-31T02:50:50;100532.69;;;22.36;71.61
63204;BME280;49297;43.210;27.914;2023-07-31T02:53:19;100544.69;;;22.40;71.57
63204;BME280;49297;43.210;27.914;2023-07-31T02:55:47;100554.66;;;22.40;71.59
63204;BME280;49297;43.210;27.914;2023-07-31T02:58:16;100553.03;;;22.39;71.69
63204;BME280;49297;43.210;27.914;2023-07-31T03:00:44;100556.91;;;22.43;71.38
63204;BME280;49297;43.210;27.914;2023-07-31T03:03:13;100559.19;;;22.46;71.39
63204;BME280;49297;43.210;27.914;2023-07-31T03:05:42;100556.88;;;22.50;71.24
63204;BME280;49297;43.210;27.914;2023-07-31T03:08:10;100555.59;;;22.52;71.26
63204;BME280;49297;43.210;27.914;2023-07-31T03:10:39;100563.25;;;22.55;71.22
63204;BME280;49297;43.210;27.914;2023-07-31T03:13:07;100564.88;;;22.56;70.81
63204;BME280;49297;43.210;27.914;2023-07-31T03:15:36;100564.47;;;22.59;70.68
63204;BME280;49297;43.210;27.914;2023-07-31T03:18:04;100563.41;;;22.60;70.61
63204;BME280;49297;43.210;27.914;2023-07-31T03:20:33;100564.41;;;22.66;70.72
63204;BME280;49297;43.210;27.914;2023-07-31T03:23:01;100571.59;;;22.72;70.34
63204;BME280;49297;43.210;27.914;2023-07-31T03:25:30;100573.88;;;22.75;70.31
63204;BME280;49297;43.210;27.914;2023-07-31T03:27:58;100580.47;;;22.79;70.20
63204;BME280;49297;43.210;27.914;2023-07-31T03:30:27;100573.81;;;22.82;70.21
63204;BME280;49297;43.210;27.914;2023-07-31T03:32:56;100567.94;;;22.85;69.96
63204;BME280;49297;43.210;27.914;2023-07-31T03:35:24;100571.03;;;22.89;69.83
63204;BME280;49297;43.210;27.914;2023-07-31T03:37:52;100561.06;;;22.89;69.63
63204;BME280;49297;43.210;27.914;2023-07-31T03:40:21;100568.56;;;22.87;69.72
63204;BME280;49297;43.210;27.914;2023-07-31T03:42:49;100569.63;;;22.86;69.54
63204;BME280;49297;43.210;27.914;2023-07-31T03:45:17;100570.66;;;22.85;69.61
63204;BME280;49297;43.210;27.914;2023-07-31T03:47:47;100569.63;;;22.86;69.73
63204;BME280;49297;43.210;27.914;2023-07-31T03:50:15;100573.13;;;22.87;69.78
63204;BME280;49297;43.210;27.914;2023-07-31T03:52:45;100566.91;;;22.86;70.18
63204;BME280;49297;43.210;27.914;2023-07-31T03:55:14;100581.06;;;22.81;70.42
63204;BME280;49297;43.210;27.914;2023-07-31T03:57:43;100577.53;;;22.81;70.85
63204;BME280;49297;43.210;27.914;2023-07-31T04:03:02;100567.44;;;22.76;71.05
63204;BME280;49297;43.210;27.914;2023-07-31T04:05:31;100573.66;;;22.77;70.98
63204;BME280;49297;43.210;27.914;2023-07-31T04:08:00;100566.00;;;22.74;70.94
63204;BME280;49297;43.210;27.914;2023-07-31T04:10:29;100560.44;;;22.69;71.42
63204;BME280;49297;43.210;27.914;2023-07-31T04:12:59;100566.88;;;22.68;71.46
63204;BME280;49297;43.210;27.914;2023-07-31T04:15:28;100576.00;;;22.67;71.11
63204;BME280;49297;43.210;27.914;2023-07-31T04:17:56;100571.72;;;22.59;71.13
63204;BME280;49297;43.210;27.914;2023-07-31T04:20:25;100583.56;;;22.58;71.24
63204;BME280;49297;43.210;27.914;2023-07-31T04:22:53;100581.06;;;22.56;71.35
63204;BME280;49297;43.210;27.914;2023-07-31T04:25:22;100570.06;;;22.58;71.22
63204;BME280;49297;43.210;27.914;2023-07-31T04:27:51;100563.41;;;22.60;71.33
63204;BME280;49297;43.210;27.914;2023-07-31T04:30:19;100575.41;;;22.65;71.23
63204;BME280;49297;43.210;27.914;2023-07-31T04:32:48;100569.38;;;22.69;71.13
63204;BME280;49297;43.210;27.914;2023-07-31T04:35:17;100570.94;;;22.77;70.92
63204;BME280;49297;43.210;27.914;2023-07-31T04:37:45;100566.53;;;22.83;70.77
63204;BME280;49297;43.210;27.914;2023-07-31T04:40:17;100580.19;;;22.88;70.60
63204;BME280;49297;43.210;27.914;2023-07-31T04:42:45;100582.66;;;22.89;70.37
63204;BME280;49297;43.210;27.914;2023-07-31T04:45:14;100582.88;;;22.88;70.40
63204;BME280;49297;43.210;27.914;2023-07-31T04:47:45;100585.19;;;22.84;70.51
63204;BME280;49297;43.210;27.914;2023-07-31T04:50:13;100584.59;;;22.82;70.73
63204;BME280;49297;43.210;27.914;2023-07-31T04:52:42;100587.09;;;22.84;70.59
63204;BME280;49297;43.210;27.914;2023-07-31T04:55:10;100584.78;;;22.87;70.56
63204;BME280;49297;43.210;27.914;2023-07-31T04:57:40;100597.78;;;22.90;70.31
63204;BME280;49297;43.210;27.914;2023-07-31T05:00:09;100592.78;;;22.94;70.28
63204;BME280;49297;43.210;27.914;2023-07-31T05:02:40;100596.03;;;23.03;70.08
63204;BME280;49297;43.210;27.914;2023-07-31T05:05:09;100598.47;;;23.11;69.88
63204;BME280;49297;43.210;27.914;2023-07-31T05:07:38;100598.78;;;23.21;69.50
63204;BME280;49297;43.210;27.914;2023-07-31T05:10:07;100600.81;;;23.26;69.39
63204;BME280;49297;43.210;27.914;2023-07-31T05:12:36;100610.50;;;23.33;69.00
63204;BME280;49297;43.210;27.914;2023-07-31T05:15:07;100607.63;;;23.47;68.96
63204;BME280;49297;43.210;27.914;2023-07-31T05:17:37;100607.94;;;23.57;68.27
63204;BME280;49297;43.210;27.914;2023-07-31T05:20:08;100605.38;;;23.62;67.98
63204;BME280;49297;43.210;27.914;2023-07-31T05:22:39;100603.66;;;23.68;67.49
63204;BME280;49297;43.210;27.914;2023-07-31T05:25:09;100608.50;;;23.77;67.54
63204;BME280;49297;43.210;27.914;2023-07-31T05:27:37;100608.00;;;23.87;67.51
63204;BME280;49297;43.210;27.914;2023-07-31T05:30:08;100615.09;;;24.00;67.13
63204;BME280;49297;43.210;27.914;2023-07-31T05:32:37;100616.44;;;24.09;66.30
63204;BME280;49297;43.210;27.914;2023-07-31T05:35:07;100616.34;;;24.16;66.08
63204;BME280;49297;43.210;27.914;2023-07-31T05:37:37;100609.19;;;24.22;66.08
63204;BME280;49297;43.210;27.914;2023-07-31T05:40:06;100620.72;;;24.29;65.76
63204;BME280;49297;43.210;27.914;2023-07-31T05:42:37;100621.91;;;24.33;65.72
63204;BME280;49297;43.210;27.914;2023-07-31T05:45:08;100613.69;;;24.40;65.49
63204;BME280;49297;43.210;27.914;2023-07-31T05:47:37;100614.06;;;24.43;65.24
63204;BME280;49297;43.210;27.914;2023-07-31T05:50:06;100620.91;;;24.46;64.97
63204;BME280;49297;43.210;27.914;2023-07-31T05:52:36;100617.25;;;24.52;64.80
63204;BME280;49297;43.210;27.914;2023-07-31T05:55:05;100627.56;;;24.62;64.31
63204;BME280;49297;43.210;27.914;2023-07-31T05:57:36;100623.44;;;24.71;64.23
63204;BME280;49297;43.210;27.914;2023-07-31T06:00:06;100616.41;;;24.82;63.61
63204;BME280;49297;43.210;27.914;2023-07-31T06:02:36;100613.66;;;24.94;63.49
63204;BME280;49297;43.210;27.914;2023-07-31T06:05:05;100618.75;;;25.02;63.05
63204;BME280;49297;43.210;27.914;2023-07-31T06:07:35;100617.69;;;25.03;61.37
63204;BME280;49297;43.210;27.914;2023-07-31T06:10:05;100613.69;;;25.05;61.36
63204;BME280;49297;43.210;27.914;2023-07-31T06:12:36;100617.31;;;25.11;61.52
63204;BME280;49297;43.210;27.914;2023-07-31T06:15:05;100615.09;;;25.20;61.57
63204;BME280;49297;43.210;27.914;2023-07-31T06:17:35;100620.03;;;25.35;61.97
63204;BME280;49297;43.210;27.914;2023-07-31T06:20:05;100613.44;;;25.42;60.98
63204;BME280;49297;43.210;27.914;2023-07-31T06:22:36;100627.91;;;25.48;60.43
63204;BME280;49297;43.210;27.914;2023-07-31T06:25:05;100628.84;;;25.54;59.70
63204;BME280;49297;43.210;27.914;2023-07-31T06:27:37;100637.56;;;25.56;59.00
63204;BME280;49297;43.210;27.914;2023-07-31T06:30:07;100632.13;;;25.56;58.73
63204;BME280;49297;43.210;27.914;2023-07-31T06:32:38;100628.72;;;25.60;58.39
63204;BME280;49297;43.210;27.914;2023-07-31T06:35:08;100637.19;;;25.64;58.12
63204;BME280;49297;43.210;27.914;2023-07-31T06:37:38;100640.47;;;25.66;57.77
63204;BME280;49297;43.210;27.914;2023-07-31T06:40:09;100641.53;;;25.65;57.54
63204;BME280;49297;43.210;27.914;2023-07-31T06:42:40;100646.38;;;25.63;57.96
63204;BME280;49297;43.210;27.914;2023-07-31T06:45:10;100641.53;;;25.65;57.05
63204;BME280;49297;43.210;27.914;2023-07-31T06:47:39;100644.63;;;25.69;56.63
63204;BME280;49297;43.210;27.914;2023-07-31T06:50:09;100640.00;;;25.69;57.11
63204;BME280;49297;43.210;27.914;2023-07-31T06:52:36;100639.03;;;25.75;57.17
63204;BME280;49297;43.210;27.914;2023-07-31T06:55:25;100644.22;;;25.77;56.38
63204;BME280;49297;43.210;27.914;2023-07-31T06:57:55;100633.97;;;25.79;56.23
63204;BME280;49297;43.210;27.914;2023-07-31T07:00:24;100640.47;;;25.78;55.49
63204;BME280;49297;43.210;27.914;2023-07-31T07:02:52;100636.44;;;25.80;55.13
63204;BME280;49297;43.210;27.914;2023-07-31T07:05:20;100643.97;;;25.90;55.61
63204;BME280;49297;43.210;27.914;2023-07-31T07:07:50;100640.97;;;25.92;56.24
63204;BME280;49297;43.210;27.914;2023-07-31T07:10:20;100641.34;;;25.95;56.06
63204;BME280;49297;43.210;27.914;2023-07-31T07:12:50;100638.84;;;26.06;56.32
63204;BME280;49297;43.210;27.914;2023-07-31T07:15:18;100633.03;;;26.14;56.17
63204;BME280;49297;43.210;27.914;2023-07-31T07:17:59;100636.09;;;26.17;56.34
63204;BME280;49297;43.210;27.914;2023-07-31T07:20:27;100631.00;;;26.21;56.20
63204;BME280;49297;43.210;27.914;2023-07-31T07:22:56;100631.09;;;26.26;55.46
63204;BME280;49297;43.210;27.914;2023-07-31T07:25:25;100633.41;;;26.34;55.97
63204;BME280;49297;43.210;27.914;2023-07-31T07:27:53;100633.25;;;26.41;55.54
63204;BME280;49297;43.210;27.914;2023-07-31T07:30:22;100632.53;;;26.46;55.22
63204;BME280;49297;43.210;27.914;2023-07-31T07:32:54;100631.53;;;26.52;55.30
63204;BME280;49297;43.210;27.914;2023-07-31T07:35:23;100643.41;;;26.63;54.97
63204;BME280;49297;43.210;27.914;2023-07-31T07:37:52;100627.44;;;26.66;53.81
63204;BME280;49297;43.210;27.914;2023-07-31T07:40:21;100631.41;;;26.75;53.95
63204;BME280;49297;43.210;27.914;2023-07-31T07:42:50;100639.63;;;26.81;53.55
63204;BME280;49297;43.210;27.914;2023-07-31T07:45:19;100632.38;;;26.86;53.91
63204;BME280;49297;43.210;27.914;2023-07-31T07:47:50;100632.53;;;26.96;54.01
63204;BME280;49297;43.210;27.914;2023-07-31T07:50:20;100633.59;;;27.12;53.58
63204;BME280;49297;43.210;27.914;2023-07-31T07:52:49;100626.75;;;27.27;52.85
63204;BME280;49297;43.210;27.914;2023-07-31T07:55:18;100625.25;;;27.36;51.96
63204;BME280;49297;43.210;27.914;2023-07-31T07:57:46;100626.97;;;27.42;52.08
63204;BME280;49297;43.210;27.914;2023-07-31T08:00:15;100626.25;;;27.52;52.02
63204;BME280;49297;43.210;27.914;2023-07-31T08:02:46;100621.22;;;27.61;51.89
63204;BME280;49297;43.210;27.914;2023-07-31T08:05:14;100624.00;;;27.66;51.47
63204;BME280;49297;43.210;27.914;2023-07-31T08:07:45;100628.31;;;27.62;51.49
63204;BME280;49297;43.210;27.914;2023-07-31T08:10:14;100625.59;;;27.62;51.78
63204;BME280;49297;43.210;27.914;2023-07-31T08:12:42;100627.66;;;27.54;51.19
63204;BME280;49297;43.210;27.914;2023-07-31T08:15:11;100622.22;;;27.54;51.68
63204;BME280;49297;43.210;27.914;2023-07-31T08:17:40;100628.88;;;27.64;51.76
63204;BME280;49297;43.210;27.914;2023-07-31T08:20:10;100634.75;;;27.78;51.54
63204;BME280;49297;43.210;27.914;2023-07-31T08:22:49;100630.84;;;27.90;51.47
63204;BME280;49297;43.210;27.914;2023-07-31T08:25:19;100634.75;;;28.00;51.12
63204;BME280;49297;43.210;27.914;2023-07-31T08:27:50;100632.88;;;28.05;50.99
63204;BME280;49297;43.210;27.914;2023-07-31T08:30:24;100634.53;;;28.06;50.47
63204;BME280;49297;43.210;27.914;2023-07-31T08:32:58;100634.53;;;28.06;50.34
63204;BME280;49297;43.210;27.914;2023-07-31T08:35:31;100632.75;;;28.17;50.38
63204;BME280;49297;43.210;27.914;2023-07-31T08:38:03;100635.03;;;28.25;50.04
63204;BME280;49297;43.210;27.914;2023-07-31T08:40:36;100642.09;;;28.26;50.12
63204;BME280;49297;43.210;27.914;2023-07-31T08:43:28;100635.88;;;28.31;49.78
63204;BME280;49297;43.210;27.914;2023-07-31T08:46:02;100643.00;;;28.37;50.42
63204;BME280;49297;43.210;27.914;2023-07-31T08:48:32;100639.78;;;28.40;51.22
63204;BME280;49297;43.210;27.914;2023-07-31T08:51:00;100645.28;;;28.45;51.79
63204;BME280;49297;43.210;27.914;2023-07-31T08:53:32;100640.25;;;28.59;52.02
63204;BME280;49297;43.210;27.914;2023-07-31T08:56:03;100639.78;;;28.73;51.05
63204;BME280;49297;43.210;27.914;2023-07-31T08:58:33;100642.25;;;28.74;50.01
63204;BME280;49297;43.210;27.914;2023-07-31T09:01:04;100644.44;;;28.72;49.50
63204;BME280;49297;43.210;27.914;2023-07-31T09:03:35;100638.47;;;28.80;48.96
63204;BME280;49297;43.210;27.914;2023-07-31T09:06:04;100638.53;;;28.85;49.14
63204;BME280;49297;43.210;27.914;2023-07-31T09:08:33;100651.53;;;28.78;48.71
63204;BME280;49297;43.210;27.914;2023-07-31T09:11:03;100652.31;;;28.69;48.54
63204;BME280;49297;43.210;27.914;2023-07-31T09:13:32;100650.25;;;28.54;48.78
63204;BME280;49297;43.210;27.914;2023-07-31T09:16:01;100659.94;;;28.44;49.27
63204;BME280;49297;43.210;27.914;2023-07-31T09:18:30;100651.13;;;28.32;49.42
63204;BME280;49297;43.210;27.914;2023-07-31T09:21:06;100655.84;;;28.15;49.93
63204;BME280;49297;43.210;27.914;2023-07-31T09:23:45;100662.75;;;28.00;50.47
63204;BME280;49297;43.210;27.914;2023-07-31T09:26:36;100669.72;;;27.91;51.20
63204;BME280;49297;43.210;27.914;2023-07-31T09:29:06;100663.13;;;27.87;51.25
63204;BME280;49297;43.210;27.914;2023-07-31T09:31:42;100661.75;;;27.84;51.34
63204;BME280;49297;43.210;27.914;2023-07-31T09:34:12;100669.13;;;27.89;51.48
63204;BME280;49297;43.210;27.914;2023-07-31T09:37:01;100676.16;;;28.07;51.19
63204;BME280;49297;43.210;27.914;2023-07-31T09:39:29;100666.56;;;28.26;50.28
63204;BME280;49297;43.210;27.914;2023-07-31T09:41:58;100657.03;;;28.51;50.44
63204;BME280;49297;43.210;27.914;2023-07-31T09:44:40;100656.13;;;28.73;49.85
63204;BME280;49297;43.210;27.914;2023-07-31T09:47:22;100659.03;;;28.93;49.17
63204;BME280;49297;43.210;27.914;2023-07-31T09:49:51;100655.72;;;29.23;48.80
63204;BME280;49297;43.210;27.914;2023-07-31T09:52:20;100655.56;;;29.46;47.00
63204;BME280;49297;43.210;27.914;2023-07-31T09:54:48;100644.44;;;29.62;46.22
63204;BME280;49297;43.210;27.914;2023-07-31T09:57:17;100652.63;;;29.68;45.03
63204;BME280;49297;43.210;27.914;2023-07-31T09:59:52;100647.72;;;29.65;44.37
63204;BME280;49297;43.210;27.914;2023-07-31T10:02:40;100641.41;;;29.54;44.79
63204;BME280;49297;43.210;27.914;2023-07-31T10:05:09;100656.91;;;29.48;44.73
63204;BME280;49297;43.210;27.914;2023-07-31T10:07:45;100647.41;;;29.51;44.63
63204;BME280;49297;43.210;27.914;2023-07-31T10:10:15;100643.00;;;29.45;44.01
63204;BME280;49297;43.210;27.914;2023-07-31T10:12:46;100653.63;;;29.46;44.36
63204;BME280;49297;43.210;27.914;2023-07-31T10:15:18;100647.41;;;29.51;44.20
63204;BME280;49297;43.210;27.914;2023-07-31T10:17:50;100652.88;;;29.56;44.14
63204;BME280;49297;43.210;27.914;2023-07-31T10:20:18;100652.56;;;29.47;44.47
63204;BME280;49297;43.210;27.914;2023-07-31T10:22:47;100651.47;;;29.48;44.62
63204;BME280;49297;43.210;27.914;2023-07-31T10:25:17;100649.59;;;29.59;44.72
63204;BME280;49297;43.210;27.914;2023-07-31T10:27:48;100650.44;;;29.59;44.56
63204;BME280;49297;43.210;27.914;2023-07-31T10:30:20;100647.16;;;29.62;44.61
63204;BME280;49297;43.210;27.914;2023-07-31T10:32:51;100646.91;;;29.69;44.46
63204;BME280;49297;43.210;27.914;2023-07-31T10:35:22;100649.66;;;29.74;43.83
63204;BME280;49297;43.210;27.914;2023-07-31T10:37:50;100653.00;;;29.82;44.05
63204;BME280;49297;43.210;27.914;2023-07-31T10:40:25;100647.03;;;29.90;43.84
63204;BME280;49297;43.210;27.914;2023-07-31T10:42:58;100651.91;;;29.83;43.86
63204;BME280;49297;43.210;27.914;2023-07-31T10:45:47;100652.34;;;29.64;44.04
63204;BME280;49297;43.210;27.914;2023-07-31T10:48:17;100650.19;;;29.61;44.00
63204;BME280;49297;43.210;27.914;2023-07-31T10:50:54;100646.44;;;29.77;43.84
63204;BME280;49297;43.210;27.914;2023-07-31T10:53:32;100649.75;;;30.00;43.68
63204;BME280;49297;43.210;27.914;2023-07-31T10:56:02;100652.81;;;30.14;42.80
63204;BME280;49297;43.210;27.914;2023-07-31T10:58:33;100656.09;;;30.16;43.22
63204;BME280;49297;43.210;27.914;2023-07-31T11:01:21;100644.91;;;30.17;43.08
63204;BME280;49297;43.210;27.914;2023-07-31T11:03:57;100645.13;;;29.90;43.37
63204;BME280;49297;43.210;27.914;2023-07-31T11:06:30;100644.78;;;29.76;43.73
63204;BME280;49297;43.210;27.914;2023-07-31T11:08:59;100647.72;;;29.65;43.85
63204;BME280;49297;43.210;27.914;2023-07-31T11:11:27;100641.94;;;29.51;44.18
63204;BME280;49297;43.210;27.914;2023-07-31T11:13:56;100642.19;;;29.44;44.44
63204;BME280;49297;43.210;27.914;2023-07-31T11:16:25;100638.59;;;29.33;44.78
63204;BME280;49297;43.210;27.914;2023-07-31T11:18:54;100633.59;;;29.15;45.31
63204;BME280;49297;43.210;27.914;2023-07-31T11:21:24;100631.31;;;29.07;45.63
63204;BME280;49297;43.210;27.914;2023-07-31T11:23:57;100629.69;;;29.11;45.50
63204;BME280;49297;43.210;27.914;2023-07-31T11:26:26;100627.88;;;29.16;45.90
63204;BME280;49297;43.210;27.914;2023-07-31T11:28:55;100624.59;;;29.19;45.74
63204;BME280;49297;43.210;27.914;2023-07-31T11:31:23;100613.75;;;29.30;44.88
63204;BME280;49297;43.210;27.914;2023-07-31T11:34:07;100609.38;;;29.29;45.50
63204;BME280;49297;43.210;27.914;2023-07-31T11:36:36;100612.66;;;29.26;45.41
63204;BME280;49297;43.210;27.914;2023-07-31T11:39:11;100611.53;;;29.21;45.49
63204;BME280;49297;43.210;27.914;2023-07-31T11:41:41;100608.25;;;29.19;45.93
63204;BME280;49297;43.210;27.914;2023-07-31T11:44:09;100610.63;;;29.11;45.48
63204;BME280;49297;43.210;27.914;2023-07-31T11:46:38;100609.22;;;29.03;46.05
63204;BME280;49297;43.210;27.914;2023-07-31T11:49:07;100606.75;;;29.01;46.12
63204;BME280;49297;43.210;27.914;2023-07-31T11:51:36;100604.59;;;29.03;46.50
63204;BME280;49297;43.210;27.914;2023-07-31T11:54:05;100608.44;;;29.08;46.15
63204;BME280;49297;43.210;27.914;2023-07-31T11:56:34;100607.88;;;29.05;46.07
63204;BME280;49297;43.210;27.914;2023-07-31T11:59:03;100613.31;;;29.00;46.25
63204;BME280;49297;43.210;27.914;2023-07-31T12:01:33;100611.88;;;28.93;46.50
63204;BME280;49297;43.210;27.914;2023-07-31T12:04:02;100618.66;;;28.85;47.10
63204;BME280;49297;43.210;27.914;2023-07-31T12:06:35;100616.09;;;28.73;47.16
63204;BME280;49297;43.210;27.914;2023-07-31T12:09:04;100611.13;;;28.60;47.40
63204;BME280;49297;43.210;27.914;2023-07-31T12:11:48;100604.44;;;28.45;47.59
63204;BME280;49297;43.210;27.914;2023-07-31T12:17:09;100607.94;;;28.14;48.87
63204;BME280;49297;43.210;27.914;2023-07-31T12:19:37;100596.91;;;27.98;49.26
63204;BME280;49297;43.210;27.914;2023-07-31T12:22:16;100594.88;;;27.88;49.63
63204;BME280;49297;43.210;27.914;2023-07-31T12:24:45;100592.88;;;27.79;49.95
63204;BME280;49297;43.210;27.914;2023-07-31T12:27:15;100605.03;;;27.71;50.71
63204;BME280;49297;43.210;27.914;2023-07-31T12:29:46;100595.44;;;27.63;53.74
63204;BME280;49297;43.210;27.914;2023-07-31T12:32:24;100588.47;;;27.50;56.68
63204;BME280;49297;43.210;27.914;2023-07-31T12:35:00;100595.41;;;27.41;57.86
63204;BME280;49297;43.210;27.914;2023-07-31T12:37:29;100593.66;;;27.30;58.62
63204;BME280;49297;43.210;27.914;2023-07-31T12:39:59;100588.13;;;27.25;58.89
63204;BME280;49297;43.210;27.914;2023-07-31T12:42:36;100585.00;;;27.16;58.84
63204;BME280;49297;43.210;27.914;2023-07-31T12:45:06;100585.25;;;27.14;58.99
63204;BME280;49297;43.210;27.914;2023-07-31T12:47:35;100579.50;;;27.11;56.71
63204;BME280;49297;43.210;27.914;2023-07-31T12:50:05;100574.06;;;27.11;56.52
63204;BME280;49297;43.210;27.914;2023-07-31T12:52:34;100572.75;;;27.13;55.94
63204;BME280;49297;43.210;27.914;2023-07-31T12:55:04;100574.13;;;27.16;55.81
63204;BME280;49297;43.210;27.914;2023-07-31T12:57:34;100581.56;;;27.21;54.86
63204;BME280;49297;43.210;27.914;2023-07-31T13:00:03;100576.19;;;27.26;55.00
63204;BME280;49297;43.210;27.914;2023-07-31T13:02:34;100575.69;;;27.29;53.98
63204;BME280;49297;43.210;27.914;2023-07-31T13:05:07;100576.91;;;27.38;53.03
63204;BME280;49297;43.210;27.914;2023-07-31T13:07:37;100576.44;;;27.46;52.67
63204;BME280;49297;43.210;27.914;2023-07-31T13:10:08;100574.38;;;27.53;52.28